sensor_id;sensor_type;location;lat;lon;timestamp;temperature;humidity
32293;DHT22;43233;48.608;8.838;2023-11-19T00:00:26;7.20;92.20
32293;DHT22;43233;48.608;8.838;2023-11-19T00:02:52;7.30;93.20
32293;DHT22;43233;48.608;8.838;2023-11-19T00:05:18;7.60;93.80
32293;DHT22;43233;48.608;8.838;2023-11-19T00:07:44;7.80;94.00
32293;DHT22;43233;48.608;8.838;2023-11-19T00:10:14;8.00;94.30
32293;DHT22;43233;48.608;8.838;2023-11-19T00:12:45;8.10;94.40
32293;DHT22;43233;48.608;8.838;2023-11-19T00:15:15;8.20;94.50
32293;DHT22;43233;48.608;8.838;2023-11-19T00:17:42;8.30;94.50
32293;DHT22;43233;48.608;8.838;2023-11-19T00:20:11;8.40;94.30
32293;DHT22;43233;48.608;8.838;2023-11-19T00:22:37;8.40;94.30
32293;DHT22;43233;48.608;8.838;2023-11-19T00:25:03;8.50;94.50
32293;DHT22;43233;48.608;8.838;2023-11-19T00:27:29;8.60;94.10
32293;DHT22;43233;48.608;8.838;2023-11-19T00:29:55;8.60;94.00
32293;DHT22;43233;48.608;8.838;2023-11-19T00:32:20;8.60;94.00
32293;DHT22;43233;48.608;8.838;2023-11-19T00:34:46;8.70;94.20
32293;DHT22;43233;48.608;8.838;2023-11-19T00:37:16;8.70;94.10
32293;DHT22;43233;48.608;8.838;2023-11-19T00:39:42;8.70;94.10
32293;DHT22;43233;48.608;8.838;2023-11-19T00:42:09;8.80;94.00
32293;DHT22;43233;48.608;8.838;2023-11-19T00:44:35;8.80;93.70
32293;DHT22;43233;48.608;8.838;2023-11-19T00:47:01;8.90;94.10
32293;DHT22;43233;48.608;8.838;2023-11-19T00:49:27;8.90;93.70
32293;DHT22;43233;48.608;8.838;2023-11-19T00:51:52;9.00;93.70
32293;DHT22;43233;48.608;8.838;2023-11-19T00:54:18;9.00;93.50
32293;DHT22;43233;48.608;8.838;2023-11-19T00:56:43;9.10;93.30
32293;DHT22;43233;48.608;8.838;2023-11-19T00:59:10;9.10;93.00
32293;DHT22;43233;48.608;8.838;2023-11-19T01:01:36;9.10;92.90
32293;DHT22;43233;48.608;8.838;2023-11-19T01:04:01;9.10;93.00
32293;DHT22;43233;48.608;8.838;2023-11-19T01:06:28;9.10;93.00
32293;DHT22;43233;48.608;8.838;2023-11-19T01:08:54;9.10;93.20
32293;DHT22;43233;48.608;8.838;2023-11-19T01:11:21;9.10;93.10
32293;DHT22;43233;48.608;8.838;2023-11-19T01:13:47;9.20;93.10
32293;DHT22;43233;48.608;8.838;2023-11-19T01:16:12;9.20;93.00
32293;DHT22;43233;48.608;8.838;2023-11-19T01:18:38;9.30;92.80
32293;DHT22;43233;48.608;8.838;2023-11-19T01:21:05;9.30;92.60
32293;DHT22;43233;48.608;8.838;2023-11-19T01:23:30;9.30;92.80
32293;DHT22;43233;48.608;8.838;2023-11-19T01:25:56;9.30;92.60
32293;DHT22;43233;48.608;8.838;2023-11-19T01:28:21;9.40;92.50
32293;DHT22;43233;48.608;8.838;2023-11-19T01:30:50;9.30;92.60
32293;DHT22;43233;48.608;8.838;2023-11-19T01:33:16;9.30;92.60
32293;DHT22;43233;48.608;8.838;2023-11-19T01:35:41;9.40;92.90
32293;DHT22;43233;48.608;8.838;2023-11-19T01:38:07;9.40;92.70
32293;DHT22;43233;48.608;8.838;2023-11-19T01:40:34;9.40;92.60
32293;DHT22;43233;48.608;8.838;2023-11-19T01:43:02;9.40;92.40
32293;DHT22;43233;48.608;8.838;2023-11-19T01:45:29;9.50;92.60
32293;DHT22;43233;48.608;8.838;2023-11-19T01:47:56;9.50;92.40
32293;DHT22;43233;48.608;8.838;2023-11-19T01:50:23;9.50;92.40
32293;DHT22;43233;48.608;8.838;2023-11-19T01:52:54;9.50;92.60
32293;DHT22;43233;48.608;8.838;2023-11-19T01:55:20;9.50;92.40
32293;DHT22;43233;48.608;8.838;2023-11-19T01:57:48;9.60;92.20
32293;DHT22;43233;48.608;8.838;2023-11-19T02:00:14;9.60;92.10
32293;DHT22;43233;48.608;8.838;2023-11-19T02:02:41;9.60;92.20
32293;DHT22;43233;48.608;8.838;2023-11-19T02:05:08;9.70;92.20
32293;DHT22;43233;48.608;8.838;2023-11-19T02:07:33;9.60;92.10
32293;DHT22;43233;48.608;8.838;2023-11-19T02:09:59;9.70;91.90
32293;DHT22;43233;48.608;8.838;2023-11-19T02:12:27;9.70;91.90
32293;DHT22;43233;48.608;8.838;2023-11-19T02:14:59;9.80;91.40
32293;DHT22;43233;48.608;8.838;2023-11-19T02:17:29;9.80;91.40
32293;DHT22;43233;48.608;8.838;2023-11-19T02:19:59;9.70;91.60
32293;DHT22;43233;48.608;8.838;2023-11-19T02:22:25;9.80;91.80
32293;DHT22;43233;48.608;8.838;2023-11-19T02:24:58;9.80;91.70
32293;DHT22;43233;48.608;8.838;2023-11-19T02:30:04;9.90;91.30
32293;DHT22;43233;48.608;8.838;2023-11-19T02:32:34;9.80;91.30
32293;DHT22;43233;48.608;8.838;2023-11-19T02:34:59;9.80;91.50
32293;DHT22;43233;48.608;8.838;2023-11-19T02:37:25;9.80;91.60
32293;DHT22;43233;48.608;8.838;2023-11-19T02:39:51;9.80;92.00
32293;DHT22;43233;48.608;8.838;2023-11-19T02:42:16;9.90;92.10
32293;DHT22;43233;48.608;8.838;2023-11-19T02:44:45;9.90;91.70
32293;DHT22;43233;48.608;8.838;2023-11-19T02:47:11;9.90;91.80
32293;DHT22;43233;48.608;8.838;2023-11-19T02:49:37;9.80;91.90
32293;DHT22;43233;48.608;8.838;2023-11-19T02:52:03;9.90;92.10
32293;DHT22;43233;48.608;8.838;2023-11-19T02:54:31;9.90;92.00
32293;DHT22;43233;48.608;8.838;2023-11-19T02:57:00;9.90;92.00
32293;DHT22;43233;48.608;8.838;2023-11-19T02:59:29;9.90;91.90
32293;DHT22;43233;48.608;8.838;2023-11-19T03:02:07;9.90;92.10
32293;DHT22;43233;48.608;8.838;2023-11-19T03:04:36;9.90;92.30
32293;DHT22;43233;48.608;8.838;2023-11-19T03:07:03;9.90;92.40
32293;DHT22;43233;48.608;8.838;2023-11-19T03:09:29;9.90;92.40
32293;DHT22;43233;48.608;8.838;2023-11-19T03:11:55;9.90;92.50
32293;DHT22;43233;48.608;8.838;2023-11-19T03:14:20;9.80;92.50
32293;DHT22;43233;48.608;8.838;2023-11-19T03:16:48;9.80;92.60
32293;DHT22;43233;48.608;8.838;2023-11-19T03:19:13;9.90;92.80
32293;DHT22;43233;48.608;8.838;2023-11-19T03:21:39;9.90;92.70
32293;DHT22;43233;48.608;8.838;2023-11-19T03:24:05;9.90;92.80
32293;DHT22;43233;48.608;8.838;2023-11-19T03:26:30;9.90;92.90
32293;DHT22;43233;48.608;8.838;2023-11-19T03:28:56;9.90;93.00
32293;DHT22;43233;48.608;8.838;2023-11-19T03:31:22;9.90;93.00
32293;DHT22;43233;48.608;8.838;2023-11-19T03:33:48;9.90;92.90
32293;DHT22;43233;48.608;8.838;2023-11-19T03:36:14;10.00;92.80
32293;DHT22;43233;48.608;8.838;2023-11-19T03:38:39;10.00;93.00
32293;DHT22;43233;48.608;8.838;2023-11-19T03:41:14;10.00;93.00
32293;DHT22;43233;48.608;8.838;2023-11-19T03:43:40;10.00;92.80
32293;DHT22;43233;48.608;8.838;2023-11-19T03:46:19;10.00;92.80
32293;DHT22;43233;48.608;8.838;2023-11-19T03:48:47;10.00;92.80
32293;DHT22;43233;48.608;8.838;2023-11-19T03:51:13;10.00;92.80
32293;DHT22;43233;48.608;8.838;2023-11-19T03:53:45;10.00;92.70
32293;DHT22;43233;48.608;8.838;2023-11-19T03:56:11;10.10;92.80
32293;DHT22;43233;48.608;8.838;2023-11-19T03:58:37;10.10;92.70
32293;DHT22;43233;48.608;8.838;2023-11-19T04:01:04;10.10;92.40
32293;DHT22;43233;48.608;8.838;2023-11-19T04:03:30;10.10;92.20
32293;DHT22;43233;48.608;8.838;2023-11-19T04:05:55;10.10;92.20
32293;DHT22;43233;48.608;8.838;2023-11-19T04:08:22;10.10;92.30
32293;DHT22;43233;48.608;8.838;2023-11-19T04:10:47;10.10;92.40
32293;DHT22;43233;48.608;8.838;2023-11-19T04:13:13;10.10;92.40
32293;DHT22;43233;48.608;8.838;2023-11-19T04:15:39;10.10;92.40
32293;DHT22;43233;48.608;8.838;2023-11-19T04:18:04;10.10;92.50
32293;DHT22;43233;48.608;8.838;2023-11-19T04:20:30;10.10;92.60
32293;DHT22;43233;48.608;8.838;2023-11-19T04:22:57;10.20;92.60
32293;DHT22;43233;48.608;8.838;2023-11-19T04:25:23;10.20;92.50
32293;DHT22;43233;48.608;8.838;2023-11-19T04:27:51;10.20;92.80
32293;DHT22;43233;48.608;8.838;2023-11-19T04:30:17;10.20;92.40
32293;DHT22;43233;48.608;8.838;2023-11-19T04:32:43;10.20;92.40
32293;DHT22;43233;48.608;8.838;2023-11-19T04:35:09;10.30;92.40
32293;DHT22;43233;48.608;8.838;2023-11-19T04:37:35;10.30;92.20
32293;DHT22;43233;48.608;8.838;2023-11-19T04:40:01;10.30;92.30
32293;DHT22;43233;48.608;8.838;2023-11-19T04:42:26;10.30;92.30
32293;DHT22;43233;48.608;8.838;2023-11-19T04:44:52;10.30;92.50
32293;DHT22;43233;48.608;8.838;2023-11-19T04:47:18;10.30;92.40
32293;DHT22;43233;48.608;8.838;2023-11-19T04:49:43;10.30;92.40
32293;DHT22;43233;48.608;8.838;2023-11-19T04:52:09;10.40;92.20
32293;DHT22;43233;48.608;8.838;2023-11-19T04:54:35;10.40;92.30
32293;DHT22;43233;48.608;8.838;2023-11-19T04:57:00;10.40;92.00
32293;DHT22;43233;48.608;8.838;2023-11-19T04:59:26;10.40;92.10
32293;DHT22;43233;48.608;8.838;2023-11-19T05:01:53;10.40;92.20
32293;DHT22;43233;48.608;8.838;2023-11-19T05:04:18;10.40;92.40
32293;DHT22;43233;48.608;8.838;2023-11-19T05:06:44;10.50;92.40
32293;DHT22;43233;48.608;8.838;2023-11-19T05:09:10;10.50;92.30
32293;DHT22;43233;48.608;8.838;2023-11-19T05:11:38;10.50;92.40
32293;DHT22;43233;48.608;8.838;2023-11-19T05:14:05;10.50;92.40
32293;DHT22;43233;48.608;8.838;2023-11-19T05:16:31;10.50;92.50
32293;DHT22;43233;48.608;8.838;2023-11-19T05:18:57;10.50;92.50
32293;DHT22;43233;48.608;8.838;2023-11-19T05:21:22;10.50;92.40
32293;DHT22;43233;48.608;8.838;2023-11-19T05:23:49;10.50;92.40
32293;DHT22;43233;48.608;8.838;2023-11-19T05:26:18;10.50;92.80
32293;DHT22;43233;48.608;8.838;2023-11-19T05:28:45;10.50;93.00
32293;DHT22;43233;48.608;8.838;2023-11-19T05:31:10;10.50;93.00
32293;DHT22;43233;48.608;8.838;2023-11-19T05:33:36;10.50;93.10
32293;DHT22;43233;48.608;8.838;2023-11-19T05:36:02;10.50;93.10
32293;DHT22;43233;48.608;8.838;2023-11-19T05:38:29;10.50;93.40
32293;DHT22;43233;48.608;8.838;2023-11-19T05:40:55;10.50;93.50
32293;DHT22;43233;48.608;8.838;2023-11-19T05:43:21;10.50;93.40
32293;DHT22;43233;48.608;8.838;2023-11-19T05:45:47;10.60;93.40
32293;DHT22;43233;48.608;8.838;2023-11-19T05:48:13;10.60;93.40
32293;DHT22;43233;48.608;8.838;2023-11-19T05:50:40;10.60;93.20
32293;DHT22;43233;48.608;8.838;2023-11-19T05:53:05;10.60;93.30
32293;DHT22;43233;48.608;8.838;2023-11-19T05:55:35;10.60;93.20
32293;DHT22;43233;48.608;8.838;2023-11-19T05:58:01;10.60;93.20
32293;DHT22;43233;48.608;8.838;2023-11-19T06:00:27;10.60;93.10
32293;DHT22;43233;48.608;8.838;2023-11-19T06:02:52;10.60;93.00
32293;DHT22;43233;48.608;8.838;2023-11-19T06:05:18;10.70;93.20
32293;DHT22;43233;48.608;8.838;2023-11-19T06:07:44;10.70;93.30
32293;DHT22;43233;48.608;8.838;2023-11-19T06:10:10;10.70;93.10
32293;DHT22;43233;48.608;8.838;2023-11-19T06:12:36;10.70;93.10
32293;DHT22;43233;48.608;8.838;2023-11-19T06:15:07;10.70;93.30
32293;DHT22;43233;48.608;8.838;2023-11-19T06:17:34;10.60;93.10
32293;DHT22;43233;48.608;8.838;2023-11-19T06:19:59;10.70;93.40
32293;DHT22;43233;48.608;8.838;2023-11-19T06:22:25;10.70;93.40
32293;DHT22;43233;48.608;8.838;2023-11-19T06:24:51;10.70;93.20
32293;DHT22;43233;48.608;8.838;2023-11-19T06:27:16;10.70;93.20
32293;DHT22;43233;48.608;8.838;2023-11-19T06:29:42;10.60;93.10
32293;DHT22;43233;48.608;8.838;2023-11-19T06:32:07;10.60;93.20
32293;DHT22;43233;48.608;8.838;2023-11-19T06:34:34;10.60;93.20
32293;DHT22;43233;48.608;8.838;2023-11-19T06:36:59;10.60;93.20
32293;DHT22;43233;48.608;8.838;2023-11-19T06:39:25;10.60;93.30
32293;DHT22;43233;48.608;8.838;2023-11-19T06:41:51;10.60;93.40
32293;DHT22;43233;48.608;8.838;2023-11-19T06:44:17;10.60;93.40
32293;DHT22;43233;48.608;8.838;2023-11-19T06:46:43;10.60;93.20
32293;DHT22;43233;48.608;8.838;2023-11-19T06:49:09;10.60;93.20
32293;DHT22;43233;48.608;8.838;2023-11-19T06:51:34;10.60;93.20
32293;DHT22;43233;48.608;8.838;2023-11-19T06:54:00;10.60;93.20
32293;DHT22;43233;48.608;8.838;2023-11-19T06:56:26;10.60;93.00
32293;DHT22;43233;48.608;8.838;2023-11-19T06:58:52;10.60;93.00
32293;DHT22;43233;48.608;8.838;2023-11-19T07:01:19;10.70;93.20
32293;DHT22;43233;48.608;8.838;2023-11-19T07:03:48;10.70;93.30
32293;DHT22;43233;48.608;8.838;2023-11-19T07:06:14;10.70;92.90
32293;DHT22;43233;48.608;8.838;2023-11-19T07:08:42;10.70;93.00
32293;DHT22;43233;48.608;8.838;2023-11-19T07:11:12;10.70;93.10
32293;DHT22;43233;48.608;8.838;2023-11-19T07:13:39;10.70;93.00
32293;DHT22;43233;48.608;8.838;2023-11-19T07:16:05;10.70;92.90
32293;DHT22;43233;48.608;8.838;2023-11-19T07:18:31;10.70;93.00
32293;DHT22;43233;48.608;8.838;2023-11-19T07:20:57;10.70;93.20
32293;DHT22;43233;48.608;8.838;2023-11-19T07:23:23;10.70;93.20
32293;DHT22;43233;48.608;8.838;2023-11-19T07:25:48;10.70;93.30
32293;DHT22;43233;48.608;8.838;2023-11-19T07:28:16;10.80;93.40
32293;DHT22;43233;48.608;8.838;2023-11-19T07:30:42;10.90;93.20
32293;DHT22;43233;48.608;8.838;2023-11-19T07:33:07;10.80;92.70
32293;DHT22;43233;48.608;8.838;2023-11-19T07:35:33;10.80;92.60
32293;DHT22;43233;48.608;8.838;2023-11-19T07:37:59;10.80;92.50
32293;DHT22;43233;48.608;8.838;2023-11-19T07:40:25;10.80;92.70
32293;DHT22;43233;48.608;8.838;2023-11-19T07:42:51;10.80;92.60
32293;DHT22;43233;48.608;8.838;2023-11-19T07:45:17;10.80;92.70
32293;DHT22;43233;48.608;8.838;2023-11-19T07:47:43;10.90;92.80
32293;DHT22;43233;48.608;8.838;2023-11-19T07:50:10;10.80;92.80
32293;DHT22;43233;48.608;8.838;2023-11-19T07:52:37;10.90;93.00
32293;DHT22;43233;48.608;8.838;2023-11-19T07:55:02;10.90;92.90
32293;DHT22;43233;48.608;8.838;2023-11-19T07:57:28;10.90;93.00
32293;DHT22;43233;48.608;8.838;2023-11-19T07:59:59;10.90;93.00
32293;DHT22;43233;48.608;8.838;2023-11-19T08:02:26;10.90;92.90
32293;DHT22;43233;48.608;8.838;2023-11-19T08:04:52;10.90;92.80
32293;DHT22;43233;48.608;8.838;2023-11-19T08:07:20;10.90;93.00
32293;DHT22;43233;48.608;8.838;2023-11-19T08:09:46;10.90;92.80
32293;DHT22;43233;48.608;8.838;2023-11-19T08:12:12;10.90;92.80
32293;DHT22;43233;48.608;8.838;2023-11-19T08:14:40;10.90;92.80
32293;DHT22;43233;48.608;8.838;2023-11-19T08:17:05;10.90;92.90
32293;DHT22;43233;48.608;8.838;2023-11-19T08:19:31;10.90;93.00
32293;DHT22;43233;48.608;8.838;2023-11-19T08:21:57;10.90;93.70
32293;DHT22;43233;48.608;8.838;2023-11-19T08:24:23;10.90;93.30
32293;DHT22;43233;48.608;8.838;2023-11-19T08:26:49;10.90;93.30
32293;DHT22;43233;48.608;8.838;2023-11-19T08:29:14;10.90;93.30
32293;DHT22;43233;48.608;8.838;2023-11-19T08:31:40;10.90;93.60
32293;DHT22;43233;48.608;8.838;2023-11-19T08:34:06;10.90;93.90
32293;DHT22;43233;48.608;8.838;2023-11-19T08:36:34;11.00;93.60
32293;DHT22;43233;48.608;8.838;2023-11-19T08:39:00;11.10;93.50
32293;DHT22;43233;48.608;8.838;2023-11-19T08:41:25;11.10;93.70
32293;DHT22;43233;48.608;8.838;2023-11-19T08:43:51;11.20;93.50
32293;DHT22;43233;48.608;8.838;2023-11-19T08:46:17;11.30;94.00
32293;DHT22;43233;48.608;8.838;2023-11-19T08:48:42;11.40;93.80
32293;DHT22;43233;48.608;8.838;2023-11-19T08:51:08;11.50;93.40
32293;DHT22;43233;48.608;8.838;2023-11-19T08:53:34;11.70;93.10
32293;DHT22;43233;48.608;8.838;2023-11-19T08:55:59;12.00;91.70
32293;DHT22;43233;48.608;8.838;2023-11-19T08:58:26;12.20;90.50
32293;DHT22;43233;48.608;8.838;2023-11-19T09:00:51;12.50;89.60
32293;DHT22;43233;48.608;8.838;2023-11-19T09:03:17;12.80;86.80
32293;DHT22;43233;48.608;8.838;2023-11-19T09:05:42;13.10;85.70
32293;DHT22;43233;48.608;8.838;2023-11-19T09:08:08;13.50;84.70
32293;DHT22;43233;48.608;8.838;2023-11-19T09:10:34;13.70;81.50
32293;DHT22;43233;48.608;8.838;2023-11-19T09:12:59;13.80;78.30
32293;DHT22;43233;48.608;8.838;2023-11-19T09:15:25;13.80;78.40
32293;DHT22;43233;48.608;8.838;2023-11-19T09:17:50;13.80;78.50
32293;DHT22;43233;48.608;8.838;2023-11-19T09:20:16;14.20;79.70
32293;DHT22;43233;48.608;8.838;2023-11-19T09:22:42;14.70;77.10
32293;DHT22;43233;48.608;8.838;2023-11-19T09:25:08;15.30;67.70
32293;DHT22;43233;48.608;8.838;2023-11-19T09:27:33;15.70;65.70
32293;DHT22;43233;48.608;8.838;2023-11-19T09:29:59;15.80;64.00
32293;DHT22;43233;48.608;8.838;2023-11-19T09:32:25;15.80;63.20
32293;DHT22;43233;48.608;8.838;2023-11-19T09:34:51;15.60;64.00
32293;DHT22;43233;48.608;8.838;2023-11-19T09:37:16;15.40;64.40
32293;DHT22;43233;48.608;8.838;2023-11-19T09:39:42;15.20;64.70
32293;DHT22;43233;48.608;8.838;2023-11-19T09:42:11;15.00;64.90
32293;DHT22;43233;48.608;8.838;2023-11-19T09:44:38;14.80;65.90
32293;DHT22;43233;48.608;8.838;2023-11-19T09:47:06;14.60;65.70
32293;DHT22;43233;48.608;8.838;2023-11-19T09:49:33;14.40;66.80
32293;DHT22;43233;48.608;8.838;2023-11-19T09:52:00;14.20;68.40
32293;DHT22;43233;48.608;8.838;2023-11-19T09:54:26;14.30;69.20
32293;DHT22;43233;48.608;8.838;2023-11-19T09:56:52;14.40;69.10
32293;DHT22;43233;48.608;8.838;2023-11-19T09:59:18;14.50;69.00
32293;DHT22;43233;48.608;8.838;2023-11-19T10:01:45;14.60;68.20
32293;DHT22;43233;48.608;8.838;2023-11-19T10:04:13;14.70;67.30
32293;DHT22;43233;48.608;8.838;2023-11-19T10:06:42;14.80;67.20
32293;DHT22;43233;48.608;8.838;2023-11-19T10:09:07;14.80;67.00
32293;DHT22;43233;48.608;8.838;2023-11-19T10:11:33;14.70;67.50
32293;DHT22;43233;48.608;8.838;2023-11-19T10:13:59;14.60;67.90
32293;DHT22;43233;48.608;8.838;2023-11-19T10:16:30;14.90;68.70
32293;DHT22;43233;48.608;8.838;2023-11-19T10:18:56;15.30;67.40
32293;DHT22;43233;48.608;8.838;2023-11-19T10:21:22;15.80;64.60
32293;DHT22;43233;48.608;8.838;2023-11-19T10:23:56;16.30;61.80
32293;DHT22;43233;48.608;8.838;2023-11-19T10:26:23;16.70;59.00
32293;DHT22;43233;48.608;8.838;2023-11-19T10:28:49;17.00;56.90
32293;DHT22;43233;48.608;8.838;2023-11-19T10:31:19;17.20;56.20
32293;DHT22;43233;48.608;8.838;2023-11-19T10:33:48;17.70;54.00
32293;DHT22;43233;48.608;8.838;2023-11-19T10:36:14;18.40;51.60
32293;DHT22;43233;48.608;8.838;2023-11-19T10:38:40;18.90;47.60
32293;DHT22;43233;48.608;8.838;2023-11-19T10:41:06;19.40;45.00
32293;DHT22;43233;48.608;8.838;2023-11-19T10:43:45;20.00;42.00
32293;DHT22;43233;48.608;8.838;2023-11-19T10:46:12;20.70;41.60
32293;DHT22;43233;48.608;8.838;2023-11-19T10:48:38;21.50;37.50
32293;DHT22;43233;48.608;8.838;2023-11-19T10:51:06;22.40;34.20
32293;DHT22;43233;48.608;8.838;2023-11-19T10:53:37;23.10;31.90
32293;DHT22;43233;48.608;8.838;2023-11-19T10:56:06;24.00;29.50
32293;DHT22;43233;48.608;8.838;2023-11-19T10:58:36;25.00;26.60
32293;DHT22;43233;48.608;8.838;2023-11-19T11:01:11;25.90;24.60
32293;DHT22;43233;48.608;8.838;2023-11-19T11:03:42;26.40;23.60
32293;DHT22;43233;48.608;8.838;2023-11-19T11:06:13;26.70;22.80
32293;DHT22;43233;48.608;8.838;2023-11-19T11:08:39;26.90;23.00
32293;DHT22;43233;48.608;8.838;2023-11-19T11:11:06;27.10;22.00
32293;DHT22;43233;48.608;8.838;2023-11-19T11:13:33;27.00;22.30
32293;DHT22;43233;48.608;8.838;2023-11-19T11:15:59;27.30;22.50
32293;DHT22;43233;48.608;8.838;2023-11-19T11:18:25;27.50;22.40
32293;DHT22;43233;48.608;8.838;2023-11-19T11:21:07;27.30;22.40
32293;DHT22;43233;48.608;8.838;2023-11-19T11:23:56;26.70;22.50
32293;DHT22;43233;48.608;8.838;2023-11-19T11:39:52;25.90;24.30
32293;DHT22;43233;48.608;8.838;2023-11-19T11:45:09;24.10;26.90
32293;DHT22;43233;48.608;8.838;2023-11-19T11:50:22;21.70;30.60
32293;DHT22;43233;48.608;8.838;2023-11-19T11:55:35;22.00;32.10
32293;DHT22;43233;48.608;8.838;2023-11-19T11:58:02;22.70;31.10
32293;DHT22;43233;48.608;8.838;2023-11-19T12:00:30;23.90;29.40
32293;DHT22;43233;48.608;8.838;2023-11-19T12:03:00;25.10;27.80
32293;DHT22;43233;48.608;8.838;2023-11-19T12:05:27;25.90;25.50
32293;DHT22;43233;48.608;8.838;2023-11-19T12:07:57;26.60;26.00
32293;DHT22;43233;48.608;8.838;2023-11-19T12:10:25;26.80;22.00
32293;DHT22;43233;48.608;8.838;2023-11-19T12:12:58;27.20;22.40
32293;DHT22;43233;48.608;8.838;2023-11-19T12:15:24;27.60;21.40
32293;DHT22;43233;48.608;8.838;2023-11-19T12:17:52;28.30;21.10
32293;DHT22;43233;48.608;8.838;2023-11-19T12:20:19;28.60;20.20
32293;DHT22;43233;48.608;8.838;2023-11-19T12:22:46;29.20;19.20
32293;DHT22;43233;48.608;8.838;2023-11-19T12:25:14;29.00;19.20
32293;DHT22;43233;48.608;8.838;2023-11-19T12:27:43;28.50;19.40
32293;DHT22;43233;48.608;8.838;2023-11-19T12:30:10;28.20;20.00
32293;DHT22;43233;48.608;8.838;2023-11-19T12:32:41;28.10;19.80
32293;DHT22;43233;48.608;8.838;2023-11-19T12:35:10;28.00;20.40
32293;DHT22;43233;48.608;8.838;2023-11-19T12:37:43;27.70;20.20
32293;DHT22;43233;48.608;8.838;2023-11-19T12:40:16;27.70;20.00
32293;DHT22;43233;48.608;8.838;2023-11-19T12:42:45;27.90;19.90
32293;DHT22;43233;48.608;8.838;2023-11-19T12:45:10;28.30;18.80
32293;DHT22;43233;48.608;8.838;2023-11-19T12:47:38;28.80;18.50
32293;DHT22;43233;48.608;8.838;2023-11-19T12:50:04;29.30;18.00
32293;DHT22;43233;48.608;8.838;2023-11-19T12:52:30;29.40;17.70
32293;DHT22;43233;48.608;8.838;2023-11-19T12:54:56;28.90;17.60
32293;DHT22;43233;48.608;8.838;2023-11-19T12:57:39;28.20;19.00
32293;DHT22;43233;48.608;8.838;2023-11-19T13:00:06;27.40;19.30
32293;DHT22;43233;48.608;8.838;2023-11-19T13:02:51;27.30;20.20
32293;DHT22;43233;48.608;8.838;2023-11-19T13:05:24;27.70;19.20
32293;DHT22;43233;48.608;8.838;2023-11-19T13:08:12;28.00;19.30
32293;DHT22;43233;48.608;8.838;2023-11-19T13:10:53;28.60;18.60
32293;DHT22;43233;48.608;8.838;2023-11-19T13:13:19;28.80;17.50
32293;DHT22;43233;48.608;8.838;2023-11-19T13:15:45;28.50;17.50
32293;DHT22;43233;48.608;8.838;2023-11-19T13:18:11;28.10;18.20
32293;DHT22;43233;48.608;8.838;2023-11-19T13:20:37;27.50;18.50
32293;DHT22;43233;48.608;8.838;2023-11-19T13:23:05;27.20;19.20
32293;DHT22;43233;48.608;8.838;2023-11-19T13:25:31;26.70;19.50
32293;DHT22;43233;48.608;8.838;2023-11-19T13:27:58;26.10;19.80
32293;DHT22;43233;48.608;8.838;2023-11-19T13:30:24;25.40;21.00
32293;DHT22;43233;48.608;8.838;2023-11-19T13:32:51;24.90;22.40
32293;DHT22;43233;48.608;8.838;2023-11-19T13:35:17;24.30;22.50
32293;DHT22;43233;48.608;8.838;2023-11-19T13:37:44;23.80;23.40
32293;DHT22;43233;48.608;8.838;2023-11-19T13:40:11;23.40;24.40
32293;DHT22;43233;48.608;8.838;2023-11-19T13:42:41;23.30;25.10
32293;DHT22;43233;48.608;8.838;2023-11-19T13:45:11;23.10;25.10
32293;DHT22;43233;48.608;8.838;2023-11-19T13:47:43;22.80;25.20
32293;DHT22;43233;48.608;8.838;2023-11-19T13:50:13;22.50;25.50
32293;DHT22;43233;48.608;8.838;2023-11-19T13:52:41;22.10;26.20
32293;DHT22;43233;48.608;8.838;2023-11-19T13:55:09;21.80;27.00
32293;DHT22;43233;48.608;8.838;2023-11-19T13:57:35;21.50;27.00
32293;DHT22;43233;48.608;8.838;2023-11-19T14:00:02;21.20;27.70
32293;DHT22;43233;48.608;8.838;2023-11-19T14:02:32;20.90;27.90
32293;DHT22;43233;48.608;8.838;2023-11-19T14:04:57;20.70;27.90
32293;DHT22;43233;48.608;8.838;2023-11-19T14:07:23;20.40;28.70
32293;DHT22;43233;48.608;8.838;2023-11-19T14:09:48;20.10;29.00
32293;DHT22;43233;48.608;8.838;2023-11-19T14:12:15;19.80;29.80
32293;DHT22;43233;48.608;8.838;2023-11-19T14:14:41;19.60;30.10
32293;DHT22;43233;48.608;8.838;2023-11-19T14:17:07;19.40;31.00
32293;DHT22;43233;48.608;8.838;2023-11-19T14:19:33;19.10;31.50
32293;DHT22;43233;48.608;8.838;2023-11-19T14:21:59;18.80;32.50
32293;DHT22;43233;48.608;8.838;2023-11-19T14:24:26;18.50;32.90
32293;DHT22;43233;48.608;8.838;2023-11-19T14:26:51;18.20;33.80
32293;DHT22;43233;48.608;8.838;2023-11-19T14:29:17;17.90;35.40
32293;DHT22;43233;48.608;8.838;2023-11-19T14:31:43;17.70;35.50
32293;DHT22;43233;48.608;8.838;2023-11-19T14:34:08;17.40;36.00
32293;DHT22;43233;48.608;8.838;2023-11-19T14:36:34;17.20;36.30
32293;DHT22;43233;48.608;8.838;2023-11-19T14:39:00;17.00;36.80
32293;DHT22;43233;48.608;8.838;2023-11-19T14:41:26;16.90;36.50
32293;DHT22;43233;48.608;8.838;2023-11-19T14:43:51;16.70;37.00
32293;DHT22;43233;48.608;8.838;2023-11-19T14:46:17;16.60;37.00
32293;DHT22;43233;48.608;8.838;2023-11-19T14:48:43;16.40;37.40
32293;DHT22;43233;48.608;8.838;2023-11-19T14:51:09;16.30;37.40
32293;DHT22;43233;48.608;8.838;2023-11-19T14:53:34;16.10;37.10
32293;DHT22;43233;48.608;8.838;2023-11-19T14:56:01;15.90;37.40
32293;DHT22;43233;48.608;8.838;2023-11-19T14:58:27;15.80;37.80
32293;DHT22;43233;48.608;8.838;2023-11-19T15:00:53;15.70;37.90
32293;DHT22;43233;48.608;8.838;2023-11-19T15:03:19;15.60;38.50
32293;DHT22;43233;48.608;8.838;2023-11-19T15:05:47;15.50;38.90
32293;DHT22;43233;48.608;8.838;2023-11-19T15:08:13;15.50;39.60
32293;DHT22;43233;48.608;8.838;2023-11-19T15:10:42;15.40;39.70
32293;DHT22;43233;48.608;8.838;2023-11-19T15:13:07;15.40;40.20
32293;DHT22;43233;48.608;8.838;2023-11-19T15:15:34;15.30;40.50
32293;DHT22;43233;48.608;8.838;2023-11-19T15:18:00;15.20;40.70
32293;DHT22;43233;48.608;8.838;2023-11-19T15:20:26;15.10;41.30
32293;DHT22;43233;48.608;8.838;2023-11-19T15:22:55;15.00;41.50
32293;DHT22;43233;48.608;8.838;2023-11-19T15:25:21;15.00;41.20
32293;DHT22;43233;48.608;8.838;2023-11-19T15:27:48;14.90;41.20
32293;DHT22;43233;48.608;8.838;2023-11-19T15:30:13;14.90;41.60
32293;DHT22;43233;48.608;8.838;2023-11-19T15:32:39;14.80;41.00
32293;DHT22;43233;48.608;8.838;2023-11-19T15:35:07;14.70;41.20
32293;DHT22;43233;48.608;8.838;2023-11-19T15:37:32;14.70;41.40
32293;DHT22;43233;48.608;8.838;2023-11-19T15:39:58;14.60;41.40
32293;DHT22;43233;48.608;8.838;2023-11-19T15:42:24;14.50;41.60
32293;DHT22;43233;48.608;8.838;2023-11-19T15:44:50;14.50;42.20
32293;DHT22;43233;48.608;8.838;2023-11-19T15:47:15;14.40;42.30
32293;DHT22;43233;48.608;8.838;2023-11-19T15:49:41;14.40;42.70
32293;DHT22;43233;48.608;8.838;2023-11-19T15:52:07;14.20;43.10
32293;DHT22;43233;48.608;8.838;2023-11-19T15:54:32;14.20;43.70
32293;DHT22;43233;48.608;8.838;2023-11-19T15:56:59;14.10;44.20